Almawashi — 3EDN7 — position and weather

sailwx.info

Track history (hours):
 
Tides and Currents Weather Stations Pressure Air Temp Water Temp Dewpoint Dewpoint Depression Visibility Wind Speed Wind Dir Waves Ship Positions

Almawashi

Last reported at 2017-Nov-17 14:54 UTC. Time now 2017-Nov-21 19:21 UTC.
Position N 36°11' E 014°53'.

Length 196 m; draft 9.5 m.

Type: Cargo ship. MMSI: 371632000.

Date/timePositionNaut miles runAvg speedWind from/ knotsBaromVisibWave heightAir tempDewpointWater temp
2017-Nov-17 14:54N 36°11' E 014°53'613.9
2017-Nov-17 14:27N 36°12' E 014°45'613.7
2017-Nov-17 14:00N 36°13' E 014°38'713.6
2017-Nov-17 13:30N 36°15' E 014°30'713.7
2017-Nov-17 13:00N 36°16' E 014°21'713.6
2017-Nov-17 12:30N 36°18' E 014°13'713.6
2017-Nov-17 12:00N 36°19' E 014°05'713.5
2017-Nov-17 11:30N 36°21' E 013°57'713.4
2017-Nov-17 11:00N 36°24' E 013°49'713.6
2017-Nov-17 10:30N 36°27' E 013°42'  
2017-Nov-14 13:52N 36°00' W 005°12'616.3
2017-Nov-14 13:30N 35°59' W 005°19'816.1
2017-Nov-14 13:00N 35°57' W 005°29'43312.4
2017-Nov-13 02:00N 30°46' W 011°30'611.8
2017-Nov-13 01:30N 30°41' W 011°34'611.9
2017-Nov-13 01:00N 30°36' W 011°37'611.5
2017-Nov-13 00:30N 30°31' W 011°41'611.4
2017-Nov-13 00:00N 30°26' W 011°45'611.6
2017-Nov-12 23:30N 30°22' W 011°49'612.0
2017-Nov-12 23:00N 30°17' W 011°53'612.1
2017-Nov-12 22:30N 30°12' W 011°57'612.1
2017-Nov-12 21:58N 30°06' W 012°01'612.1
2017-Nov-12 21:30N 30°02' W 012°05'4412.3
2017-Nov-12 17:54N 29°25' W 012°34'512.7
2017-Nov-12 17:30N 29°21' W 012°37'612.6
2017-Nov-12 17:00N 29°16' W 012°41'612.6
2017-Nov-12 16:30N 29°10' W 012°45'612.7
2017-Nov-12 16:00N 29°05' W 012°49'613.0
2017-Nov-12 15:30N 28°60' W 012°53'612.6
2017-Nov-12 15:00N 28°55' W 012°57'612.6
2017-Nov-12 14:30N 28°50' W 013°02'612.5
2017-Nov-12 13:59N 28°44' W 013°06'712.8
2017-Nov-12 13:26N 28°38' W 013°10'2813.3
2017-Nov-12 11:19N 28°15' W 013°28'413.1
2017-Nov-12 11:00N 28°12' W 013°31'713.4
2017-Nov-12 10:28N 28°06' W 013°36'613.4
2017-Nov-12 10:00N 28°01' W 013°39'713.2
2017-Nov-12 09:30N 27°56' W 013°44'713.1
2017-Nov-12 09:00N 27°50' W 013°48'713.0
2017-Nov-12 08:30N 27°46' W 013°53'612.7
2017-Nov-12 08:00N 27°41' W 013°58'612.4
2017-Nov-12 07:30N 27°36' W 014°02'612.4
2017-Nov-12 07:00N 27°31' W 014°07'612.9
2017-Nov-12 06:30N 27°26' W 014°11'612.8
2017-Nov-12 06:00N 27°21' W 014°16'612.8
2017-Nov-12 05:30N 27°16' W 014°20'612.5
2017-Nov-12 05:00N 27°11' W 014°25'612.2
2017-Nov-12 04:30N 27°06' W 014°29'612.3
2017-Nov-12 04:00N 27°02' W 014°33'612.2
2017-Nov-12 03:30N 26°57' W 014°38'612.3
2017-Nov-12 03:00N 26°52' W 014°42'612.5
2017-Nov-12 02:30N 26°47' W 014°46'612.5
2017-Nov-12 02:00N 26°42' W 014°51'612.3
2017-Nov-12 01:29N 26°38' W 014°56'2412.2
2017-Nov-11 23:32N 26°19' W 015°12'112.6
2017-Nov-11 23:29N 26°18' W 015°12'712.2
2017-Nov-11 22:54N 26°13' W 015°17'10612.2
2017-Nov-11 14:13N 24°51' W 016°31'211.7
2017-Nov-11 14:00N 24°49' W 016°33'611.9
2017-Nov-11 13:30N 24°44' W 016°37'612.3
2017-Nov-11 13:00N 24°39' W 016°41'611.7
2017-Nov-11 12:30N 24°34' W 016°45'611.7
2017-Nov-11 11:58N 24°30' W 016°50'511.5
2017-Nov-11 11:30N 24°25' W 016°53'711.5
2017-Nov-11 10:55N 24°20' W 016°58'511.3
2017-Nov-11 10:30N 24°17' W 017°01'611.3
2017-Nov-11 10:00N 24°12' W 017°05'2011.4
2017-Nov-11 08:17N 23°57' W 017°19'611.2
2017-Nov-11 07:43N 23°52' W 017°23'311.7
2017-Nov-11 07:30N 23°50' W 017°25'711.9
2017-Nov-11 06:56N 23°45' W 017°29'611.6
2017-Nov-11 06:28N 23°41' W 017°33'511.4
2017-Nov-11 06:00N 23°37' W 017°37'611.7
2017-Nov-11 05:30N 23°32' W 017°41'612.0
2017-Nov-11 05:00N 23°27' W 017°45'612.2
2017-Nov-11 04:30N 23°23' W 017°49'612.3
2017-Nov-11 04:00N 23°18' W 017°53'612.1
2017-Nov-11 03:29N 23°13' W 017°58'611.8
2017-Nov-11 02:57N 23°08' W 018°01'812.2
2017-Nov-11 02:17N 23°00' W 018°05'411.9
2017-Nov-11 01:58N 22°57' W 018°06'611.8
2017-Nov-11 01:25N 22°51' W 018°09'12012.2
2017-Nov-10 15:36N 21°01' W 019°01'1012.2
2017-Nov-10 14:47N 20°52' W 019°05'3512.2
2017-Nov-10 11:55N 20°20' W 019°20'512.3
2017-Nov-10 11:30N 20°15' W 019°23'1012.1
2017-Nov-10 10:41N 20°06' W 019°27'  
Track history (hours):
 
Tides and Currents Weather Stations Pressure Air Temp Water Temp Dewpoint Dewpoint Depression Visibility Wind Speed Wind Dir Waves Ship Positions

Almawashi

Last reported at 2017-Nov-17 14:54 UTC. Time now 2017-Nov-21 19:21 UTC.
Position N 36°11' E 014°53'.

Length 196 m; draft 9.5 m.

Type: Cargo ship. MMSI: 371632000.

Date/timePositionNaut miles runAvg speedWind from/ knotsBaromVisibWave heightAir tempDewpointWater temp
2017-Nov-17 14:54N 36°11' E 014°53'613.9
2017-Nov-17 14:27N 36°12' E 014°45'613.7
2017-Nov-17 14:00N 36°13' E 014°38'713.6
2017-Nov-17 13:30N 36°15' E 014°30'713.7
2017-Nov-17 13:00N 36°16' E 014°21'713.6
2017-Nov-17 12:30N 36°18' E 014°13'713.6
2017-Nov-17 12:00N 36°19' E 014°05'713.5
2017-Nov-17 11:30N 36°21' E 013°57'713.4
2017-Nov-17 11:00N 36°24' E 013°49'713.6
2017-Nov-17 10:30N 36°27' E 013°42'  
2017-Nov-14 13:52N 36°00' W 005°12'616.3
2017-Nov-14 13:30N 35°59' W 005°19'816.1
2017-Nov-14 13:00N 35°57' W 005°29'43312.4
2017-Nov-13 02:00N 30°46' W 011°30'611.8
2017-Nov-13 01:30N 30°41' W 011°34'611.9
2017-Nov-13 01:00N 30°36' W 011°37'611.5
2017-Nov-13 00:30N 30°31' W 011°41'611.4
2017-Nov-13 00:00N 30°26' W 011°45'611.6
2017-Nov-12 23:30N 30°22' W 011°49'612.0
2017-Nov-12 23:00N 30°17' W 011°53'612.1
2017-Nov-12 22:30N 30°12' W 011°57'612.1
2017-Nov-12 21:58N 30°06' W 012°01'612.1
2017-Nov-12 21:30N 30°02' W 012°05'4412.3
2017-Nov-12 17:54N 29°25' W 012°34'512.7
2017-Nov-12 17:30N 29°21' W 012°37'612.6
2017-Nov-12 17:00N 29°16' W 012°41'612.6
2017-Nov-12 16:30N 29°10' W 012°45'612.7
2017-Nov-12 16:00N 29°05' W 012°49'613.0
2017-Nov-12 15:30N 28°60' W 012°53'612.6
2017-Nov-12 15:00N 28°55' W 012°57'612.6
2017-Nov-12 14:30N 28°50' W 013°02'612.5
2017-Nov-12 13:59N 28°44' W 013°06'712.8
2017-Nov-12 13:26N 28°38' W 013°10'2813.3
2017-Nov-12 11:19N 28°15' W 013°28'413.1
2017-Nov-12 11:00N 28°12' W 013°31'713.4
2017-Nov-12 10:28N 28°06' W 013°36'613.4
2017-Nov-12 10:00N 28°01' W 013°39'713.2
2017-Nov-12 09:30N 27°56' W 013°44'713.1
2017-Nov-12 09:00N 27°50' W 013°48'713.0
2017-Nov-12 08:30N 27°46' W 013°53'612.7
2017-Nov-12 08:00N 27°41' W 013°58'612.4
2017-Nov-12 07:30N 27°36' W 014°02'612.4
2017-Nov-12 07:00N 27°31' W 014°07'612.9
2017-Nov-12 06:30N 27°26' W 014°11'612.8
2017-Nov-12 06:00N 27°21' W 014°16'612.8
2017-Nov-12 05:30N 27°16' W 014°20'612.5
2017-Nov-12 05:00N 27°11' W 014°25'612.2
2017-Nov-12 04:30N 27°06' W 014°29'612.3
2017-Nov-12 04:00N 27°02' W 014°33'612.2
2017-Nov-12 03:30N 26°57' W 014°38'612.3
2017-Nov-12 03:00N 26°52' W 014°42'612.5
2017-Nov-12 02:30N 26°47' W 014°46'612.5
2017-Nov-12 02:00N 26°42' W 014°51'612.3
2017-Nov-12 01:29N 26°38' W 014°56'2412.2
2017-Nov-11 23:32N 26°19' W 015°12'112.6
2017-Nov-11 23:29N 26°18' W 015°12'712.2
2017-Nov-11 22:54N 26°13' W 015°17'10612.2
2017-Nov-11 14:13N 24°51' W 016°31'211.7
2017-Nov-11 14:00N 24°49' W 016°33'611.9
2017-Nov-11 13:30N 24°44' W 016°37'612.3
2017-Nov-11 13:00N 24°39' W 016°41'611.7
2017-Nov-11 12:30N 24°34' W 016°45'611.7
2017-Nov-11 11:58N 24°30' W 016°50'511.5
2017-Nov-11 11:30N 24°25' W 016°53'711.5
2017-Nov-11 10:55N 24°20' W 016°58'511.3
2017-Nov-11 10:30N 24°17' W 017°01'611.3
2017-Nov-11 10:00N 24°12' W 017°05'2011.4
2017-Nov-11 08:17N 23°57' W 017°19'611.2
2017-Nov-11 07:43N 23°52' W 017°23'311.7
2017-Nov-11 07:30N 23°50' W 017°25'711.9
2017-Nov-11 06:56N 23°45' W 017°29'611.6
2017-Nov-11 06:28N 23°41' W 017°33'511.4
2017-Nov-11 06:00N 23°37' W 017°37'611.7
2017-Nov-11 05:30N 23°32' W 017°41'612.0
2017-Nov-11 05:00N 23°27' W 017°45'612.2
2017-Nov-11 04:30N 23°23' W 017°49'612.3
2017-Nov-11 04:00N 23°18' W 017°53'612.1
2017-Nov-11 03:29N 23°13' W 017°58'611.8
2017-Nov-11 02:57N 23°08' W 018°01'812.2
2017-Nov-11 02:17N 23°00' W 018°05'411.9
2017-Nov-11 01:58N 22°57' W 018°06'611.8
2017-Nov-11 01:25N 22°51' W 018°09'12012.2
2017-Nov-10 15:36N 21°01' W 019°01'1012.2
2017-Nov-10 14:47N 20°52' W 019°05'3512.2
2017-Nov-10 11:55N 20°20' W 019°20'512.3
2017-Nov-10 11:30N 20°15' W 019°23'1012.1
2017-Nov-10 10:41N 20°06' W 019°27'  

Dump ship's entire track history